Steveston Lifeboat — VOQQ — position and weather

sailwx.info

Track history (hours):
 
Tides and Currents Weather Stations Pressure Air Temp Water Temp Dewpoint Dewpoint Depression Visibility Wind Speed Wind Dir Waves Ship Positions

Steveston Lifeboat

Last reported at 2014-Oct-09 23:33 UTC. Time now 2014-Oct-22 03:23 UTC.
Position N 49°07' W 123°11'.
Warning: this ship's position is 12 days out of date.

Length 15 m.

Type: SAR. MMSI: 316012135.

Date/timePositionNaut miles runAvg speedWind from/ knotsBaromVisibWave heightAir tempDewpointWater temp
2014-Oct-09 23:33N 49°07' W 123°11'2 2.4
2014-Oct-09 22:33N 49°08' W 123°15'7 7.3
2014-Oct-09 21:33N 49°08' W 123°26'9 9.0
2014-Oct-09 20:33N 49°11' W 123°39'9 8.7
2014-Oct-09 19:33N 49°12' W 123°52'2 2.3
2014-Oct-09 18:31N 49°11' W 123°55'1 0.0
2014-Oct-08 23:24N 49°11' W 123°56'4 4.8
2014-Oct-08 22:30N 49°08' W 123°50'1 1.2
2014-Oct-08 21:32N 49°08' W 123°48'5 5.3
2014-Oct-08 20:33N 49°12' W 123°54'2 2.2
2014-Oct-08 19:33N 49°10' W 123°55'1 0.5
2014-Oct-08 18:19N 49°11' W 123°56'0 0.0
2014-Oct-08 17:13N 49°11' W 123°56'0 0.0
2014-Oct-08 16:31N 49°11' W 123°56'0 0.0
2014-Oct-08 15:13N 49°11' W 123°56'0 0.0
2014-Oct-08 14:22N 49°11' W 123°56'0 0.0
2014-Oct-08 12:31N 49°11' W 123°56'0 0.0
2014-Oct-08 11:31N 49°11' W 123°56'0 0.0
2014-Oct-08 10:31N 49°11' W 123°56'0 0.0
2014-Oct-08 09:31N 49°11' W 123°56'0 0.0
2014-Oct-08 08:31N 49°11' W 123°56'0 0.0
2014-Oct-08 07:19N 49°11' W 123°56'0 0.0
2014-Oct-08 06:28N 49°11' W 123°56'0 0.0
2014-Oct-08 04:16N 49°11' W 123°56'0 0.0
2014-Oct-08 03:22N 49°11' W 123°56'4 5.1
2014-Oct-08 02:33N 49°13' W 123°51'9 8.7
2014-Oct-08 01:33N 49°11' W 123°38'9 9.0
2014-Oct-08 00:34N 49°08' W 123°25'8 7.9
2014-Oct-07 23:33N 49°08' W 123°13'  
Track history (hours):
 
Tides and Currents Weather Stations Pressure Air Temp Water Temp Dewpoint Dewpoint Depression Visibility Wind Speed Wind Dir Waves Ship Positions

Steveston Lifeboat

Last reported at 2014-Oct-09 23:33 UTC. Time now 2014-Oct-22 03:23 UTC.
Position N 49°07' W 123°11'.
Warning: this ship's position is 12 days out of date.

Length 15 m.

Type: SAR. MMSI: 316012135.

Date/timePositionNaut miles runAvg speedWind from/ knotsBaromVisibWave heightAir tempDewpointWater temp
2014-Oct-09 23:33N 49°07' W 123°11'2 2.4
2014-Oct-09 22:33N 49°08' W 123°15'7 7.3
2014-Oct-09 21:33N 49°08' W 123°26'9 9.0
2014-Oct-09 20:33N 49°11' W 123°39'9 8.7
2014-Oct-09 19:33N 49°12' W 123°52'2 2.3
2014-Oct-09 18:31N 49°11' W 123°55'1 0.0
2014-Oct-08 23:24N 49°11' W 123°56'4 4.8
2014-Oct-08 22:30N 49°08' W 123°50'1 1.2
2014-Oct-08 21:32N 49°08' W 123°48'5 5.3
2014-Oct-08 20:33N 49°12' W 123°54'2 2.2
2014-Oct-08 19:33N 49°10' W 123°55'1 0.5
2014-Oct-08 18:19N 49°11' W 123°56'0 0.0
2014-Oct-08 17:13N 49°11' W 123°56'0 0.0
2014-Oct-08 16:31N 49°11' W 123°56'0 0.0
2014-Oct-08 15:13N 49°11' W 123°56'0 0.0
2014-Oct-08 14:22N 49°11' W 123°56'0 0.0
2014-Oct-08 12:31N 49°11' W 123°56'0 0.0
2014-Oct-08 11:31N 49°11' W 123°56'0 0.0
2014-Oct-08 10:31N 49°11' W 123°56'0 0.0
2014-Oct-08 09:31N 49°11' W 123°56'0 0.0
2014-Oct-08 08:31N 49°11' W 123°56'0 0.0
2014-Oct-08 07:19N 49°11' W 123°56'0 0.0
2014-Oct-08 06:28N 49°11' W 123°56'0 0.0
2014-Oct-08 04:16N 49°11' W 123°56'0 0.0
2014-Oct-08 03:22N 49°11' W 123°56'4 5.1
2014-Oct-08 02:33N 49°13' W 123°51'9 8.7
2014-Oct-08 01:33N 49°11' W 123°38'9 9.0
2014-Oct-08 00:34N 49°08' W 123°25'8 7.9
2014-Oct-07 23:33N 49°08' W 123°13'  

Dump ship's entire track history